createdAt,value
2018-11-22T00:00:02.178Z,88.20
2018-11-22T00:02:05.884Z,87.70
2018-11-22T00:04:09.145Z,87.70
2018-11-22T00:06:12.452Z,87.80
2018-11-22T00:08:15.709Z,88.60
2018-11-22T00:10:19.639Z,90.50
2018-11-22T00:12:23.061Z,87.80
2018-11-22T00:14:26.515Z,87.90
2018-11-22T00:16:29.874Z,88.20
2018-11-22T00:18:33.170Z,88.90
2018-11-22T00:20:36.443Z,87.80
2018-11-22T00:22:39.701Z,88.00
2018-11-22T00:24:43.467Z,88.00
2018-11-22T00:26:48.262Z,88.00
2018-11-22T00:28:51.866Z,87.50
2018-11-22T00:30:55.299Z,87.50
2018-11-22T00:32:58.732Z,87.50
2018-11-22T00:35:02.001Z,87.30
2018-11-22T00:37:05.544Z,87.50
2018-11-22T00:39:10.646Z,87.40
2018-11-22T00:41:13.901Z,87.90
2018-11-22T00:43:17.179Z,88.00
2018-11-22T00:45:22.755Z,87.30
2018-11-22T00:47:26.211Z,88.10
2018-11-22T00:49:29.760Z,87.30
2018-11-22T00:51:33.014Z,87.50
2018-11-22T00:53:36.281Z,87.80
2018-11-22T00:55:39.595Z,87.40
2018-11-22T00:57:43.290Z,87.80
2018-11-22T00:59:46.547Z,87.30
2018-11-22T01:01:51.631Z,87.90
2018-11-22T01:03:55.089Z,87.20
2018-11-22T01:05:58.324Z,87.50
2018-11-22T01:08:01.607Z,88.60
2018-11-22T01:10:06.169Z,88.20
2018-11-22T01:12:09.422Z,87.40
2018-11-22T01:14:12.791Z,88.20
2018-11-22T01:16:16.161Z,87.50
2018-11-22T01:18:20.183Z,88.70
2018-11-22T01:20:25.948Z,87.90
2018-11-22T01:22:29.282Z,87.50
2018-11-22T01:24:32.567Z,91.10
2018-11-22T01:26:35.881Z,89.00
2018-11-22T01:28:40.807Z,87.60
2018-11-22T01:30:44.062Z,86.90
2018-11-22T01:32:48.522Z,88.00
2018-11-22T01:34:52.207Z,87.90
2018-11-22T01:36:55.619Z,89.60
2018-11-22T01:38:58.900Z,88.40
2018-11-22T01:41:02.181Z,88.10
2018-11-22T01:43:05.703Z,87.70
2018-11-22T01:45:10.427Z,87.90
2018-11-22T01:47:13.677Z,88.00
2018-11-22T01:49:16.937Z,87.50
2018-11-22T01:51:20.804Z,87.70
2018-11-22T01:53:24.177Z,87.70
2018-11-22T01:55:27.559Z,87.80
2018-11-22T01:57:31.978Z,88.50
2018-11-22T01:59:35.269Z,88.00
2018-11-22T02:01:38.530Z,88.80
2018-11-22T02:03:42.003Z,89.50
2018-11-22T02:05:45.347Z,87.80
2018-11-22T02:07:48.782Z,88.50
2018-11-22T02:09:52.314Z,88.10
2018-11-22T02:11:55.625Z,89.50
2018-11-22T02:13:58.841Z,88.80
2018-11-22T02:16:03.438Z,87.60
2018-11-22T02:18:06.975Z,88.20
2018-11-22T02:20:12.641Z,92.30
2018-11-22T02:22:15.932Z,89.10
2018-11-22T02:24:19.307Z,88.60
2018-11-22T02:26:22.549Z,90.90
2018-11-22T02:28:25.812Z,88.30
2018-11-22T02:30:30.475Z,88.00
2018-11-22T02:32:33.842Z,87.80
2018-11-22T02:34:38.199Z,88.40
2018-11-22T02:36:41.627Z,88.00
2018-11-22T02:38:45.052Z,88.50
2018-11-22T02:40:48.534Z,88.10
2018-11-22T02:42:52.848Z,88.20
2018-11-22T02:44:56.148Z,88.60
2018-11-22T02:46:59.450Z,88.50
2018-11-22T02:49:02.706Z,88.90
2018-11-22T02:51:05.955Z,88.50
2018-11-22T02:53:11.176Z,88.90
2018-11-22T02:55:14.564Z,88.60
2018-11-22T02:57:17.994Z,88.30
2018-11-22T02:59:21.270Z,87.60
2018-11-22T03:01:24.560Z,88.80
2018-11-22T03:03:27.821Z,88.30
2018-11-22T12:17:42.018Z,76.30
2018-11-22T12:19:47.418Z,76.40
2018-11-22T12:21:51.419Z,74.40
2018-11-22T12:23:54.863Z,78.60
2018-11-22T12:25:58.102Z,75.10
2018-11-22T12:28:03.458Z,72.20
2018-11-22T12:30:11.979Z,74.20
2018-11-22T12:32:21.727Z,73.30
2018-11-22T12:34:29.537Z,81.90
2018-11-22T12:36:38.322Z,74.80
2018-11-22T12:38:42.187Z,74.70
2018-11-22T12:40:47.585Z,74.10
2018-11-22T12:42:51.423Z,71.80
2018-11-22T12:45:00.310Z,72.20
2018-11-22T12:47:04.514Z,69.20
2018-11-22T12:49:07.765Z,69.30
2018-11-22T12:51:11.587Z,68.50
2018-11-22T12:53:15.782Z,68.10
2018-11-22T12:55:19.240Z,71.80
2018-11-22T12:57:22.494Z,73.00
2018-11-22T12:59:25.965Z,70.60
2018-11-22T13:01:32.314Z,72.50
2018-11-22T13:03:36.015Z,68.40
2018-11-22T13:05:39.361Z,68.20
2018-11-22T13:07:42.812Z,67.10
2018-11-22T13:09:46.949Z,58.00
2018-11-22T13:11:51.139Z,53.50
2018-11-22T13:13:54.995Z,49.30
2018-11-22T13:15:58.278Z,47.80
2018-11-22T13:18:01.564Z,45.20
2018-11-22T13:20:07.194Z,43.10
2018-11-22T13:22:11.018Z,43.60
2018-11-22T13:24:15.176Z,41.90
2018-11-22T13:26:18.767Z,45.70
2018-11-22T13:28:22.164Z,40.00
2018-11-22T13:30:27.052Z,37.00
2018-11-22T13:36:37.175Z,37.30
2018-11-22T13:38:40.419Z,36.80
2018-11-22T13:40:43.898Z,37.20
2018-11-22T13:42:51.818Z,38.60
2018-11-22T13:46:59.270Z,42.60
2018-11-22T13:49:02.689Z,44.60
2018-11-22T13:51:05.976Z,46.80
2018-11-22T13:53:09.550Z,48.50
2018-11-22T13:55:13.516Z,48.90
2018-11-22T13:57:17.854Z,47.10
2018-11-22T13:59:21.406Z,45.80
2018-11-22T14:03:30.425Z,52.90
2018-11-22T14:05:33.721Z,56.30
2018-11-22T14:09:40.703Z,51.00
2018-11-22T14:11:45.200Z,52.70
2018-11-22T14:13:49.423Z,54.80
2018-11-22T14:15:52.827Z,54.60
2018-11-22T14:20:02.327Z,55.80
2018-11-22T14:22:06.701Z,56.70
2018-11-22T14:24:10.547Z,52.90
2018-11-22T14:26:14.375Z,51.70
2018-11-22T14:28:18.655Z,50.80
2018-11-22T14:30:23.759Z,51.20
2018-11-22T14:32:27.510Z,49.50
2018-11-22T14:34:31.239Z,48.80
2018-11-22T14:36:34.486Z,48.00
2018-11-22T14:38:38.702Z,48.50
2018-11-22T14:40:41.961Z,48.00
2018-11-22T14:42:46.220Z,53.80
2018-11-22T14:44:50.640Z,56.40
2018-11-22T14:46:53.905Z,58.20
2018-11-22T14:48:58.573Z,59.80
2018-11-22T14:51:13.569Z,61.00
2018-11-22T14:53:19.374Z,61.40
2018-11-22T14:55:23.295Z,60.30
2018-11-22T14:57:27.209Z,58.80
2018-11-22T14:59:30.918Z,60.40
2018-11-22T15:03:37.191Z,61.40
2018-11-22T15:05:42.360Z,59.30
2018-11-22T15:07:46.685Z,59.80
2018-11-22T15:09:51.154Z,70.50
2018-11-22T15:11:54.600Z,61.60
2018-11-22T15:13:57.870Z,62.40
2018-11-22T15:16:01.814Z,64.30
2018-11-22T15:18:05.090Z,66.60
2018-11-22T15:20:10.725Z,68.70
2018-11-22T15:22:14.586Z,70.80
2018-11-22T15:24:18.319Z,72.50
2018-11-22T15:26:22.359Z,74.70
2018-11-22T15:28:26.066Z,74.60
2018-11-22T15:30:30.215Z,76.40
2018-11-22T15:32:33.308Z,77.40
2018-11-22T15:34:36.577Z,77.90
2018-11-22T15:36:40.338Z,76.80
2018-11-22T15:38:43.574Z,79.80
2018-11-22T15:40:48.182Z,80.20
2018-11-22T15:42:52.946Z,86.00
2018-11-22T15:44:56.294Z,81.50
2018-11-22T15:47:00.454Z,81.90
2018-11-22T15:49:03.847Z,81.90
2018-11-22T15:51:07.531Z,82.70
2018-11-22T15:53:10.847Z,82.00
2018-11-22T15:55:20.807Z,83.00
2018-11-22T15:57:19.388Z,83.40
2018-11-22T15:59:23.118Z,83.50
2018-11-22T16:01:26.798Z,83.10
2018-11-22T16:07:38.095Z,85.20
2018-11-22T16:09:41.343Z,85.60
2018-11-22T16:11:46.306Z,86.20
2018-11-22T16:13:50.687Z,85.90
2018-11-22T16:15:54.822Z,86.20
2018-11-22T16:17:58.537Z,90.80
2018-11-22T16:20:01.781Z,87.40
2018-11-22T16:22:05.732Z,86.60
2018-11-22T16:24:10.108Z,86.80
2018-11-22T16:26:13.383Z,87.70
2018-11-22T16:28:18.604Z,86.90
2018-11-22T16:30:23.563Z,87.80
2018-11-22T16:32:27.367Z,88.30
2018-11-22T16:34:31.554Z,87.30
2018-11-22T16:36:35.721Z,87.60
2018-11-22T16:38:40.931Z,87.50
2018-11-22T16:40:44.409Z,86.60
2018-11-22T16:42:52.590Z,87.20
2018-11-22T16:44:55.995Z,87.20
2018-11-22T16:46:59.290Z,87.00
2018-11-22T16:49:03.667Z,86.80
2018-11-22T16:51:06.934Z,86.40
2018-11-22T16:53:10.772Z,86.40
2018-11-22T16:55:14.615Z,86.30
2018-11-22T16:57:18.742Z,85.90
2018-11-22T16:59:23.468Z,87.40
2018-11-22T17:01:28.294Z,90.90
2018-11-22T17:03:32.879Z,85.80
2018-11-22T17:05:36.919Z,86.40
2018-11-22T17:07:41.000Z,86.70
2018-11-22T17:09:45.971Z,86.40
2018-11-22T17:11:50.216Z,86.20
2018-11-22T17:13:54.186Z,86.50
2018-11-22T17:15:57.910Z,86.70
2018-11-22T17:18:01.836Z,90.40
2018-11-22T17:22:10.004Z,86.80
2018-11-22T17:24:14.441Z,86.60
2018-11-22T17:26:19.375Z,87.00
2018-11-22T17:30:37.050Z,87.00
2018-11-22T17:34:44.679Z,87.90
2018-11-22T17:36:50.737Z,87.90
2018-11-22T17:38:56.037Z,92.50
2018-11-22T17:40:59.750Z,91.20
2018-11-22T17:49:15.357Z,88.30
2018-11-22T17:51:24.497Z,88.40
2018-11-22T17:53:28.171Z,92.90
2018-11-22T17:55:33.122Z,89.00
2018-11-22T17:57:38.395Z,88.90
2018-11-22T17:59:41.735Z,88.90
2018-11-22T18:01:45.790Z,89.30
2018-11-22T18:03:50.398Z,87.80
2018-11-22T18:05:55.100Z,92.40
2018-11-22T18:07:58.625Z,92.20
2018-11-22T18:10:02.697Z,92.30
2018-11-22T18:12:08.354Z,88.30
2018-11-22T18:18:24.463Z,90.30
2018-11-22T18:20:29.708Z,90.50
2018-11-22T18:22:33.588Z,90.40
2018-11-22T18:24:38.793Z,90.40
2018-11-22T18:26:42.757Z,89.20
2018-11-22T18:28:47.610Z,90.30
2018-11-22T18:30:51.934Z,90.50
2018-11-22T18:32:58.668Z,89.60
2018-11-22T18:35:02.147Z,90.10
2018-11-22T18:37:06.138Z,90.40
2018-11-22T18:39:10.259Z,90.40
2018-11-22T18:41:14.470Z,91.20
2018-11-22T18:43:19.918Z,90.50
2018-11-22T18:45:29.215Z,92.40
2018-11-22T18:47:33.781Z,93.60
2018-11-22T18:49:37.885Z,94.60
2018-11-22T18:51:41.511Z,90.60
2018-11-22T18:53:48.576Z,90.80
2018-11-22T18:55:54.800Z,90.60
2018-11-22T18:57:58.876Z,90.40
2018-11-22T19:00:02.690Z,94.20
2018-11-22T19:02:08.115Z,92.00
2018-11-22T19:06:14.906Z,91.60
2018-11-22T19:08:19.808Z,91.20
2018-11-22T19:10:26.048Z,91.40
2018-11-22T19:12:31.292Z,94.10
2018-11-22T19:14:35.814Z,91.40
2018-11-22T19:16:40.074Z,91.20
2018-11-22T19:18:45.212Z,91.20
2018-11-22T19:20:49.813Z,91.70
2018-11-22T19:22:55.318Z,91.30
2018-11-22T19:25:01.760Z,91.60
2018-11-22T19:27:05.883Z,91.40
2018-11-22T19:31:14.752Z,91.60
2018-11-22T19:35:27.065Z,94.10
2018-11-22T19:37:31.815Z,91.40
2018-11-22T19:39:35.900Z,92.00
2018-11-22T19:41:40.536Z,91.90
2018-11-22T19:43:46.638Z,92.20
2018-11-22T19:45:51.669Z,92.00
2018-11-22T19:47:56.438Z,93.00
2018-11-22T19:52:05.499Z,92.00
2018-11-22T19:54:09.473Z,91.90
2018-11-22T19:56:14.011Z,92.20
2018-11-22T19:58:19.623Z,91.90
2018-11-22T20:00:25.226Z,94.10
2018-11-22T20:02:30.760Z,92.20
2018-11-22T20:04:34.026Z,92.00
2018-11-22T20:06:37.730Z,94.30
2018-11-22T20:08:41.423Z,94.80
2018-11-22T20:10:45.813Z,92.20
2018-11-22T20:14:53.246Z,91.60
2018-11-22T20:19:00.655Z,92.20
2018-11-22T20:21:05.652Z,94.90
2018-11-22T20:23:09.846Z,92.00
2018-11-22T20:25:13.179Z,92.10
2018-11-22T20:27:17.195Z,92.30
2018-11-22T20:29:23.306Z,92.50
2018-11-22T20:31:27.407Z,92.40
2018-11-22T20:33:30.889Z,92.40
2018-11-22T20:35:34.374Z,92.30
2018-11-22T20:37:39.335Z,95.40
2018-11-22T20:39:42.602Z,92.50
2018-11-22T20:41:46.295Z,92.70
2018-11-22T20:43:50.545Z,92.50
2018-11-22T20:45:54.450Z,95.50
2018-11-22T20:48:01.044Z,96.70
2018-11-22T20:50:06.562Z,97.10
2018-11-22T20:52:11.145Z,92.30
2018-11-22T20:54:14.409Z,92.30
2018-11-22T20:56:18.155Z,92.50
2018-11-22T20:58:22.987Z,92.30
2018-11-22T21:00:28.247Z,97.40
2018-11-22T21:02:31.978Z,92.70
2018-11-22T21:04:35.351Z,92.60
2018-11-22T21:06:38.595Z,94.30
2018-11-22T21:08:48.400Z,91.80
2018-11-22T21:10:46.799Z,92.50
2018-11-22T21:12:51.770Z,92.70
2018-11-22T21:14:55.422Z,93.50
2018-11-22T21:16:58.977Z,95.10
2018-11-22T21:19:04.059Z,94.70
2018-11-22T21:21:07.317Z,92.20
2018-11-22T21:23:10.946Z,96.20
2018-11-22T21:25:18.904Z,93.40
2018-11-22T21:27:22.908Z,93.30
2018-11-22T21:31:31.231Z,93.50
2018-11-22T21:33:36.383Z,92.90
2018-11-22T21:35:39.541Z,93.10
2018-11-22T21:37:43.105Z,93.20
2018-11-22T21:39:47.477Z,93.40
2018-11-22T21:41:52.019Z,93.20
2018-11-22T21:43:56.298Z,95.10
2018-11-22T21:45:59.764Z,93.20
2018-11-22T21:48:02.925Z,93.40
2018-11-22T21:50:08.102Z,92.20
2018-11-22T21:52:11.917Z,92.90
2018-11-22T21:54:15.157Z,92.00
2018-11-22T21:56:25.712Z,91.50
2018-11-22T21:58:29.017Z,95.00
2018-11-22T22:00:36.040Z,95.20
2018-11-22T22:04:42.148Z,91.80
2018-11-22T22:06:45.289Z,92.40
2018-11-22T22:08:48.522Z,92.20
2018-11-22T22:10:52.493Z,92.50
2018-11-22T22:12:56.716Z,92.50
2018-11-22T22:15:00.119Z,92.80
2018-11-22T22:17:03.249Z,92.60
2018-11-22T22:19:06.721Z,92.60
2018-11-22T22:21:10.054Z,92.60
2018-11-22T22:23:13.767Z,92.80
2018-11-22T22:25:17.685Z,95.80
2018-11-22T22:27:21.914Z,93.00
2018-11-22T22:29:25.272Z,95.60
2018-11-22T22:31:31.318Z,96.10
2018-11-22T22:35:39.563Z,96.50
2018-11-22T22:37:43.798Z,93.40
2018-11-22T22:39:47.077Z,93.30
2018-11-22T22:41:50.889Z,93.40
2018-11-22T22:45:57.801Z,95.10
2018-11-22T22:50:05.510Z,94.30
2018-11-22T22:52:08.658Z,94.30
2018-11-22T22:54:11.817Z,93.40
2018-11-22T22:56:15.197Z,93.30
2018-11-22T22:58:19.885Z,93.40
2018-11-22T23:00:30.933Z,93.40
2018-11-22T23:02:34.163Z,93.30
2018-11-22T23:04:37.314Z,93.70
2018-11-22T23:06:40.459Z,93.70
2018-11-22T23:08:43.678Z,93.50
2018-11-22T23:10:46.857Z,93.40
2018-11-22T23:12:52.311Z,93.50
2018-11-22T23:14:57.059Z,93.60
2018-11-22T23:17:00.357Z,93.60
2018-11-22T23:19:03.713Z,96.20
2018-11-22T23:21:06.882Z,93.50
2018-11-22T23:23:10.071Z,93.50
2018-11-22T23:25:13.901Z,96.80
2018-11-22T23:29:21.802Z,93.80
2018-11-22T23:31:25.965Z,96.00
2018-11-22T23:35:32.710Z,94.20
2018-11-22T23:37:35.870Z,92.70
2018-11-22T23:39:39.456Z,93.80
2018-11-22T23:43:45.515Z,93.90
2018-11-22T23:45:48.918Z,94.00
2018-11-22T23:47:54.941Z,94.00
2018-11-22T23:49:58.473Z,94.30
2018-11-22T23:52:01.880Z,94.50
2018-11-22T23:54:05.058Z,95.10
2018-11-22T23:56:08.255Z,94.50
2018-11-22T23:58:11.404Z,94.30
